Sequoia / Kings National Park, CA

3:42 AM PST on February 01, 2015 (GMT -0800)
RAWS OWENS VALLEY CA US | Change Station
CLOSE
Current Station
Personal Weather Station
Location: Bishop, CA
Elevation: 4649 ft
Nearby Weather Stations

Elev 4649 ft 37.39 °N, 118.55 °W | Updated 48 minutes ago

Clear
Clear
36 °F
Feels Like 33 °F
N
4
Wind Variable Wind from SW
Gusts 9.0 mph

Today
High -- | Low -- °F
--% Chance of Precip.
Yesterday
High -- | Low -- °F
Precip. -- in
6:57 AM 5:18 PM
Waxing Gibbous, 94% visible
Pressure 30.13 in
Visibility 10.0 miles
Clouds Clear
Windchill 33 °F
Dew Point 7 °F
Humidity 29%
Rainfall 0.00 in
Snow Depth Not available.
UV 0 out of 12
Pollen 5.50 out of 12
Air Quality Not available.
Flu Activity Not available.
METAR KBIH 011056Z AUTO 30004KT 10SM CLR 01/M13 A3017 RMK AO2 SLP201 T00111133

More Conditions Fewer Conditions

Pressure 30.13 in
Visibility 10.0 miles
Clouds Clear
Windchill 33 °F
Dew Point 7 °F
Humidity 29%
Rainfall 0.00 in
Snow Depth Not available.
UV 0 out of 12
Pollen 5.50 out of 12
Air Quality Not available.
Flu Activity Not available.
METAR KBIH 011056Z AUTO 30004KT 10SM CLR 01/M13 A3017 RMK AO2 SLP201 T00111133

More Conditions Fewer Conditions

10-Day Weather Forecast

Almanac

Astronomy

Feb. 01, 2015 Rise Set
Actual Time
Civil Twilight
Nautical Twilight
Astronomical Twilight
Moon
Length of Visible Light
Length of Day
Tomorrow will be .
, % of the Moon is Illuminated

Today's Extremes

State Highs State Lows

Community

WunderPhotos

Upload Photos

1,792,346 photos uploaded!

WunderBlogs® & News

Nearby

Air Quality

  Air Quality AQ Index Pollutant
Not available.

Snow Depth

Station Depth Elevation

Earthquake Activity

City Distance Mag. Time & Date
Minimum magnitude displayed is 2.5.

Coastal Water Temperatures

Place Temperature

Nearby Weather Stations